Tenjinmaru No11 — JD3353 — position and weather

sailwx.info

Track history (hours):
 
Tides and Currents Weather Stations Pressure Air Temp Water Temp Dewpoint Dewpoint Depression Visibility Wind Speed Wind Dir Waves Ship Positions

Tenjinmaru No11

Last reported at 2016-Feb-07 12:25 UTC. Time now 2016-Feb-07 12:57 UTC.
Position N 35°35' E 140°04'.

Length 75 m; draft 4.8 m.

Type: Cargo ship. MMSI: 431003485.

Date/timePositionNaut miles runAvg speedWind from/ knotsBaromVisibWave heightAir tempDewpointWater temp
2016-Feb-07 12:25N 35°35' E 140°04'0 0.0
2016-Feb-07 11:25N 35°35' E 140°04'0 0.0
2016-Feb-07 10:31N 35°35' E 140°04'9 9.1
2016-Feb-07 09:33N 35°31' E 139°55'1010.4
2016-Feb-07 08:33N 35°23' E 139°46'10 9.7
2016-Feb-07 07:33N 35°13' E 139°47'46 6.5
2016-Feb-07 00:29N 35°26' E 140°41'  
2016-Jan-31 20:32N 35°59' E 140°43'4 2.1
2016-Jan-31 18:32N 35°56' E 140°40'0 0.0
2016-Jan-31 17:26N 35°56' E 140°40'0 0.0
2016-Jan-30 23:26N 35°56' E 140°40'0 0.0
2016-Jan-30 22:26N 35°56' E 140°40'0 0.0
2016-Jan-30 21:26N 35°56' E 140°40'0 0.0
2016-Jan-30 20:19N 35°56' E 140°40'0 0.0
2016-Jan-30 19:26N 35°56' E 140°40'0 0.0
2016-Jan-30 18:14N 35°56' E 140°40'0 0.0
2016-Jan-30 17:31N 35°56' E 140°40'0 0.0
2016-Jan-30 15:20N 35°56' E 140°40'0 0.0
2016-Jan-30 14:32N 35°56' E 140°40'0 0.0
2016-Jan-30 13:25N 35°56' E 140°40'0 0.0
2016-Jan-29 03:19N 35°56' E 140°40'0 0.0
2016-Jan-28 22:13N 35°56' E 140°40'2 0.9
2016-Jan-28 19:26N 35°57' E 140°42'0 0.0
2016-Jan-28 18:18N 35°57' E 140°42'0 0.1
2016-Jan-28 17:30N 35°57' E 140°42'0 0.0
2016-Jan-28 16:33N 35°57' E 140°42'0 0.0
2016-Jan-28 15:33N 35°57' E 140°42'0 0.0
2016-Jan-28 14:33N 35°57' E 140°42'  
Track history (hours):
 
Tides and Currents Weather Stations Pressure Air Temp Water Temp Dewpoint Dewpoint Depression Visibility Wind Speed Wind Dir Waves Ship Positions

Tenjinmaru No11

Last reported at 2016-Feb-07 12:25 UTC. Time now 2016-Feb-07 12:57 UTC.
Position N 35°35' E 140°04'.

Length 75 m; draft 4.8 m.

Type: Cargo ship. MMSI: 431003485.

Date/timePositionNaut miles runAvg speedWind from/ knotsBaromVisibWave heightAir tempDewpointWater temp
2016-Feb-07 12:25N 35°35' E 140°04'0 0.0
2016-Feb-07 11:25N 35°35' E 140°04'0 0.0
2016-Feb-07 10:31N 35°35' E 140°04'9 9.1
2016-Feb-07 09:33N 35°31' E 139°55'1010.4
2016-Feb-07 08:33N 35°23' E 139°46'10 9.7
2016-Feb-07 07:33N 35°13' E 139°47'46 6.5
2016-Feb-07 00:29N 35°26' E 140°41'  
2016-Jan-31 20:32N 35°59' E 140°43'4 2.1
2016-Jan-31 18:32N 35°56' E 140°40'0 0.0
2016-Jan-31 17:26N 35°56' E 140°40'0 0.0
2016-Jan-30 23:26N 35°56' E 140°40'0 0.0
2016-Jan-30 22:26N 35°56' E 140°40'0 0.0
2016-Jan-30 21:26N 35°56' E 140°40'0 0.0
2016-Jan-30 20:19N 35°56' E 140°40'0 0.0
2016-Jan-30 19:26N 35°56' E 140°40'0 0.0
2016-Jan-30 18:14N 35°56' E 140°40'0 0.0
2016-Jan-30 17:31N 35°56' E 140°40'0 0.0
2016-Jan-30 15:20N 35°56' E 140°40'0 0.0
2016-Jan-30 14:32N 35°56' E 140°40'0 0.0
2016-Jan-30 13:25N 35°56' E 140°40'0 0.0
2016-Jan-29 03:19N 35°56' E 140°40'0 0.0
2016-Jan-28 22:13N 35°56' E 140°40'2 0.9
2016-Jan-28 19:26N 35°57' E 140°42'0 0.0
2016-Jan-28 18:18N 35°57' E 140°42'0 0.1
2016-Jan-28 17:30N 35°57' E 140°42'0 0.0
2016-Jan-28 16:33N 35°57' E 140°42'0 0.0
2016-Jan-28 15:33N 35°57' E 140°42'0 0.0
2016-Jan-28 14:33N 35°57' E 140°42'  

Dump ship's entire track history